Time;durP1;ratioP1;P1;durP2;ratioP2;P2;SDS_P1;SDS_P2;PMS_P1;PMS_P2;Temp;Humidity;BMP_temperature;BMP_pressure;BME280_temperature;BME280_humidity;BME280_pressure;Samples;Min_cycle;Max_cycle;Signal;HPM_P1;HPM_P2
2021/01/23 00:01:09;;;;;;;5.00;0.88;;;5.60;99.90;;;;;;5049716;28;20050;-93
2021/01/23 00:03:39;;;;;;;6.35;1.35;;;5.60;99.90;;;;;;5067780;28;20041;-93
2021/01/23 00:06:07;;;;;;;4.03;0.60;;;5.60;99.90;;;;;;5088272;28;20069;-92
2021/01/23 00:08:34;;;;;;;9.65;0.70;;;5.70;99.90;;;;;;5067440;28;20117;-93
2021/01/23 00:11:07;;;;;;;8.05;0.70;;;5.60;99.90;;;;;;5065852;28;20124;-93
2021/01/23 00:13:34;;;;;;;6.97;0.80;;;5.70;99.90;;;;;;5067815;28;20048;-93
2021/01/23 00:16:09;;;;;;;9.02;0.93;;;5.70;99.90;;;;;;5062010;28;20123;-93
2021/01/23 00:18:36;;;;;;;4.45;0.55;;;5.70;99.90;;;;;;5065658;28;20045;-93
2021/01/23 00:21:03;;;;;;;4.05;0.70;;;5.70;99.90;;;;;;5074530;28;20059;-93
2021/01/23 00:23:33;;;;;;;6.68;0.70;;;5.70;99.90;;;;;;5071055;28;20047;-93
2021/01/23 00:26:00;;;;;;;8.77;0.80;;;5.70;99.90;;;;;;5071131;28;20047;-93
2021/01/23 00:28:29;;;;;;;7.50;0.90;;;5.70;99.90;;;;;;5058948;28;20040;-93
2021/01/23 00:31:00;;;;;;;9.65;1.30;;;5.70;99.90;;;;;;5069627;28;20514;-93
2021/01/23 00:33:28;;;;;;;6.03;0.60;;;5.80;99.90;;;;;;5067273;28;20048;-93
2021/01/23 00:35:55;;;;;;;4.47;0.70;;;5.80;99.90;;;;;;5093434;27;20048;-93
2021/01/23 00:38:23;;;;;;;5.55;0.68;;;5.80;99.90;;;;;;5048896;28;20045;-94
2021/01/23 00:40:50;;;;;;;9.40;1.13;;;5.80;99.90;;;;;;5054738;28;20063;-93
2021/01/23 00:43:21;;;;;;;10.50;1.13;;;5.80;99.90;;;;;;5069462;28;20110;-94
2021/01/23 00:45:58;;;;;;;4.43;0.50;;;5.90;99.90;;;;;;5072948;28;20089;-93
2021/01/23 00:48:26;;;;;;;6.72;0.50;;;5.90;99.90;;;;;;5086133;28;20048;-93
2021/01/23 00:50:53;;;;;;;7.57;0.80;;;5.90;99.90;;;;;;5097779;28;20067;-93
2021/01/23 00:53:23;;;;;;;9.15;1.30;;;5.90;99.90;;;;;;5079938;28;20051;-93
2021/01/23 00:55:51;;;;;;;8.93;0.82;;;6.00;99.90;;;;;;5076115;28;20039;-93
2021/01/23 00:58:28;;;;;;;3.55;0.70;;;6.00;99.90;;;;;;5078978;27;20049;-94
2021/01/23 01:00:58;;;;;;;5.43;0.90;;;6.00;99.90;;;;;;5062031;28;20055;-93
2021/01/23 01:03:27;;;;;;;8.45;1.60;;;6.00;99.90;;;;;;5057857;28;20048;-93
2021/01/23 01:05:53;;;;;;;5.25;0.90;;;6.00;99.90;;;;;;5100019;28;20082;-92
2021/01/23 01:08:20;;;;;;;8.38;0.90;;;6.00;99.90;;;;;;5092843;28;20059;-91
2021/01/23 01:10:48;;;;;;;5.90;1.15;;;6.10;99.90;;;;;;5079310;28;20041;-92
2021/01/23 01:13:18;;;;;;;9.85;0.82;;;6.10;99.90;;;;;;5074484;28;20082;-93
2021/01/23 01:15:45;;;;;;;7.07;0.80;;;6.10;99.90;;;;;;5098449;28;20143;-93
2021/01/23 01:18:12;;;;;;;12.38;0.88;;;6.20;99.90;;;;;;5098873;28;20044;-93
2021/01/23 01:20:38;;;;;;;9.40;1.00;;;6.20;99.90;;;;;;5080518;28;20541;-92
2021/01/23 01:23:05;;;;;;;5.43;1.10;;;6.20;99.90;;;;;;5065053;28;20047;-93
2021/01/23 01:25:32;;;;;;;13.88;1.60;;;6.20;99.90;;;;;;5076048;28;20044;-93
2021/01/23 01:27:59;;;;;;;13.40;1.48;;;6.30;99.90;;;;;;5079390;28;20048;-93
2021/01/23 01:30:27;;;;;;;18.40;1.85;;;6.30;99.90;;;;;;5095313;28;20067;-93
2021/01/23 01:32:54;;;;;;;14.60;2.10;;;6.30;99.90;;;;;;5084174;28;20135;-92
2021/01/23 01:35:22;;;;;;;21.60;2.20;;;6.40;99.90;;;;;;5073862;28;20051;-93
2021/01/23 01:37:49;;;;;;;14.85;1.83;;;6.40;99.90;;;;;;5093376;28;20040;-93
2021/01/23 01:40:16;;;;;;;12.68;1.65;;;6.50;99.90;;;;;;5093568;28;20043;-92
2021/01/23 01:42:43;;;;;;;16.38;1.88;;;6.50;99.90;;;;;;5054105;28;20071;-93
2021/01/23 01:45:10;;;;;;;13.55;2.25;;;6.50;99.90;;;;;;5081207;28;20056;-93
2021/01/23 01:47:40;;;;;;;13.27;2.13;;;6.50;99.90;;;;;;5075502;28;20045;-93
2021/01/23 01:50:07;;;;;;;16.25;1.98;;;6.50;99.90;;;;;;5072466;28;20109;-92
2021/01/23 01:52:35;;;;;;;16.60;3.28;;;6.50;99.90;;;;;;5066904;28;20047;-92
2021/01/23 01:55:02;;;;;;;16.90;2.22;;;6.50;99.90;;;;;;5067857;28;20045;-92
2021/01/23 01:57:31;;;;;;;13.37;2.23;;;6.50;99.90;;;;;;5104103;28;20051;-92
2021/01/23 01:59:59;;;;;;;17.73;2.30;;;6.60;99.90;;;;;;5105648;28;20043;-92
2021/01/23 02:02:48;;;;;;;27.13;2.97;;;6.60;99.90;;;;;;5069058;28;20180;-92
2021/01/23 02:05:26;;;;;;;20.65;3.38;;;6.60;99.90;;;;;;5085181;28;20041;-92
2021/01/23 02:08:33;;;;;;;22.63;4.17;;;6.70;99.90;;;;;;5092786;28;20048;-92
2021/01/23 02:11:16;;;;;;;24.80;3.42;;;6.80;99.90;;;;;;5043132;28;20563;-92
2021/01/23 02:14:03;;;;;;;25.10;3.63;;;6.90;99.90;;;;;;5063220;28;20461;-93
2021/01/23 02:16:36;;;;;;;16.83;2.75;;;7.00;99.90;;;;;;5094913;28;20043;-92
2021/01/23 02:19:12;;;;;;;15.25;2.55;;;7.00;99.90;;;;;;5079280;28;20464;-92
2021/01/23 02:21:58;;;;;;;16.42;2.30;;;7.10;99.90;;;;;;5107408;28;20450;-92
2021/01/23 02:24:26;;;;;;;15.48;2.80;;;7.10;99.90;;;;;;5078845;28;20085;-92
2021/01/23 02:27:11;;;;;;;14.82;3.00;;;7.10;99.90;;;;;;5094106;28;20139;-93
2021/01/23 02:29:52;;;;;;;18.63;2.78;;;7.00;99.90;;;;;;5084491;28;20532;-93
2021/01/23 02:32:21;;;;;;;16.67;3.00;;;7.00;99.90;;;;;;5089014;28;20102;-93
2021/01/23 02:34:49;;;;;;;19.05;3.30;;;7.00;99.90;;;;;;5066178;28;20048;-93
2021/01/23 02:37:16;;;;;;;15.77;2.70;;;6.90;99.90;;;;;;5072166;28;20531;-91
2021/01/23 02:39:44;;;;;;;14.95;1.92;;;6.90;99.90;;;;;;5057902;28;20640;-91
2021/01/23 02:42:10;;;;;;;18.17;2.40;;;6.90;99.90;;;;;;5066215;28;20040;-92
2021/01/23 02:44:37;;;;;;;9.05;1.40;;;6.80;99.90;;;;;;5079931;28;20044;-92
2021/01/23 02:47:03;;;;;;;9.73;1.60;;;6.80;99.90;;;;;;5092615;28;20032;-92
2021/01/23 02:49:30;;;;;;;13.07;1.40;;;6.80;99.90;;;;;;5084241;28;20048;-92
2021/01/23 02:52:11;;;;;;;13.18;1.60;;;6.80;99.90;;;;;;5073373;28;20373;-91
2021/01/23 02:54:42;;;;;;;10.57;1.20;;;6.80;99.90;;;;;;5060947;28;20044;-91
2021/01/23 02:57:11;;;;;;;8.88;1.42;;;6.70;99.90;;;;;;5041659;28;20059;-92
2021/01/23 02:59:40;;;;;;;7.63;1.63;;;6.60;99.90;;;;;;5082601;28;20040;-93
2021/01/23 03:02:12;;;;;;;13.82;2.47;;;6.50;99.90;;;;;;5092785;28;20076;-92
2021/01/23 03:04:40;;;;;;;8.10;1.15;;;6.40;99.90;;;;;;5087877;28;20068;-92
2021/01/23 03:07:07;;;;;;;12.05;1.25;;;6.30;99.90;;;;;;5080087;28;20079;-92
2021/01/23 03:09:34;;;;;;;8.77;1.17;;;6.30;99.90;;;;;;5108371;28;20040;-92
2021/01/23 03:12:02;;;;;;;5.88;1.10;;;6.20;99.90;;;;;;5080497;28;20081;-92
2021/01/23 03:14:29;;;;;;;7.97;1.27;;;6.10;99.90;;;;;;5078786;28;20045;-92
2021/01/23 03:16:56;;;;;;;11.32;1.60;;;6.10;99.90;;;;;;5087838;28;20127;-92
2021/01/23 03:19:24;;;;;;;8.18;1.10;;;6.10;99.90;;;;;;5097476;28;20071;-92
2021/01/23 03:21:51;;;;;;;10.88;2.20;;;6.10;99.90;;;;;;5073095;28;20103;-92
2021/01/23 03:24:19;;;;;;;11.05;1.70;;;6.10;99.90;;;;;;5070976;28;20447;-92
2021/01/23 03:26:46;;;;;;;12.55;1.60;;;6.20;99.90;;;;;;5085226;28;20047;-92
2021/01/23 03:29:14;;;;;;;8.80;1.60;;;6.30;99.90;;;;;;5084351;28;20040;-91
2021/01/23 03:31:41;;;;;;;11.30;1.33;;;6.40;99.90;;;;;;5099468;28;20044;-91
2021/01/23 03:34:08;;;;;;;9.02;1.67;;;6.50;99.90;;;;;;5096543;28;20773;-91
2021/01/23 03:36:35;;;;;;;6.53;1.30;;;6.60;99.90;;;;;;5090919;28;20040;-91
2021/01/23 03:39:04;;;;;;;11.48;2.00;;;6.60;99.90;;;;;;5089644;28;20673;-92
2021/01/23 03:41:31;;;;;;;10.90;1.60;;;6.50;99.90;;;;;;5072071;28;20067;-92
2021/01/23 03:43:59;;;;;;;8.77;1.25;;;6.30;99.90;;;;;;5068985;28;20051;-91
2021/01/23 03:46:26;;;;;;;9.35;1.40;;;6.20;99.90;;;;;;5057427;28;20044;-92
2021/01/23 03:48:52;;;;;;;9.80;1.25;;;6.00;99.90;;;;;;5072369;28;20400;-92
2021/01/23 03:51:19;;;;;;;8.05;1.20;;;5.90;99.90;;;;;;5077425;28;20388;-92
2021/01/23 03:53:46;;;;;;;8.55;1.10;;;5.80;99.90;;;;;;5106011;28;20040;-91
2021/01/23 03:56:12;;;;;;;8.32;1.33;;;5.70;99.90;;;;;;5092037;28;20048;-92
2021/01/23 03:58:39;;;;;;;8.60;1.15;;;5.70;99.90;;;;;;5085463;28;20131;-92
2021/01/23 04:01:06;;;;;;;9.35;1.65;;;5.60;99.90;;;;;;5094383;28;20127;-92
2021/01/23 04:03:35;;;;;;;11.25;1.65;;;5.50;99.90;;;;;;5082867;28;20134;-92
2021/01/23 04:06:03;;;;;;;14.18;1.60;;;5.50;99.90;;;;;;5087182;28;20480;-92
2021/01/23 04:08:31;;;;;;;14.07;1.65;;;5.50;99.90;;;;;;5068765;28;20050;-92
2021/01/23 04:11:03;;;;;;;14.45;1.80;;;5.50;99.90;;;;;;5083306;28;20068;-92
2021/01/23 04:13:37;;;;;;;12.50;1.73;;;5.50;99.90;;;;;;5049672;28;20040;-92
2021/01/23 04:16:06;;;;;;;15.18;1.58;;;5.50;99.90;;;;;;5060030;27;20056;-92
2021/01/23 04:18:37;;;;;;;;;;;5.50;99.90;;;;;;5073357;28;20048;-92
2021/01/23 04:21:04;;;;;;;18.63;2.35;;;5.60;99.90;;;;;;5069321;28;19931;-91
2021/01/23 04:23:32;;;;;;;17.45;2.88;;;5.60;99.90;;;;;;5072113;28;20045;-92
2021/01/23 04:25:59;;;;;;;17.90;3.03;;;5.70;99.90;;;;;;5073744;28;20048;-91
2021/01/23 04:28:26;;;;;;;13.48;2.08;;;5.80;99.90;;;;;;5083551;28;20037;-91
2021/01/23 04:30:52;;;;;;;10.20;1.60;;;5.80;99.90;;;;;;5087971;28;20132;-92
2021/01/23 04:33:22;;;;;;;18.50;2.15;;;5.90;99.90;;;;;;5076982;28;20056;-91
2021/01/23 04:35:49;;;;;;;18.23;2.35;;;6.00;99.90;;;;;;5084554;28;20059;-92
2021/01/23 04:38:15;;;;;;;14.82;2.00;;;6.10;99.90;;;;;;5066712;28;20049;-92
2021/01/23 04:40:45;;;;;;;16.08;3.03;;;6.20;99.90;;;;;;5066398;28;20088;-92
2021/01/23 04:43:11;;;;;;;21.80;3.30;;;6.30;99.90;;;;;;5061915;28;20440;-91
2021/01/23 04:45:42;;;;;;;18.73;2.47;;;6.40;99.90;;;;;;5086419;28;20422;-92
2021/01/23 04:48:09;;;;;;;18.60;3.10;;;6.40;99.90;;;;;;5075513;28;20672;-92
2021/01/23 04:50:36;;;;;;;18.75;3.47;;;6.60;99.90;;;;;;5054099;28;20131;-92
2021/01/23 04:53:05;;;;;;;19.30;3.20;;;6.60;99.90;;;;;;5057482;28;20480;-91
2021/01/23 04:55:32;;;;;;;22.08;3.35;;;6.70;99.90;;;;;;5072700;28;20427;-92
2021/01/23 04:57:58;;;;;;;19.73;3.83;;;6.80;99.90;;;;;;5078615;28;20041;-92
2021/01/23 05:00:25;;;;;;;8.27;1.90;;;6.80;99.90;;;;;;5069741;28;20089;-92
2021/01/23 05:03:04;;;;;;;19.15;2.50;;;6.80;99.90;;;;;;5071180;28;20060;-91
2021/01/23 05:05:31;;;;;;;;;;;6.70;99.90;;;;;;5089536;28;20052;-92
2021/01/23 05:08:11;;;;;;;7.97;1.48;;;6.70;99.90;;;;;;5069959;28;19927;-92
2021/01/23 05:10:40;;;;;;;7.75;1.30;;;6.50;99.90;;;;;;5053744;28;20188;-92
2021/01/23 05:13:15;;;;;;;9.32;1.35;;;6.30;99.90;;;;;;5065254;28;20048;-92
2021/01/23 05:15:45;;;;;;;8.55;1.00;;;6.10;99.90;;;;;;5075607;28;20499;-93
2021/01/23 05:18:14;;;;;;;6.35;0.80;;;6.10;99.90;;;;;;5074996;28;20498;-92
2021/01/23 05:20:52;;;;;;;13.77;1.67;;;6.00;99.90;;;;;;5062820;28;20052;-91
2021/01/23 05:23:20;;;;;;;18.27;2.45;;;6.00;99.90;;;;;;5088061;28;20055;-92
2021/01/23 05:25:52;;;;;;;20.42;2.53;;;6.00;99.90;;;;;;5097659;28;20404;-92
2021/01/23 05:28:30;;;;;;;19.23;2.15;;;6.10;99.90;;;;;;5065497;27;20051;-92
2021/01/23 05:30:59;;;;;;;13.55;1.90;;;6.10;99.90;;;;;;5065232;28;20048;-91
2021/01/23 05:33:28;;;;;;;15.20;2.10;;;6.20;99.90;;;;;;5066891;28;20044;-92
2021/01/23 05:36:01;;;;;;;;;;;6.20;99.90;;;;;;5087307;28;20132;-92
2021/01/23 05:38:37;;;;;;;16.13;2.60;;;6.20;99.90;;;;;;5090005;28;19920;-95
2021/01/23 05:41:04;;;;;;;19.85;3.00;;;6.20;99.90;;;;;;5076204;28;20048;-93
2021/01/23 05:43:34;;;;;;;18.30;2.65;;;6.20;99.90;;;;;;5064914;28;20451;-92
2021/01/23 05:46:25;;;;;;;19.67;2.97;;;6.20;99.90;;;;;;5078231;28;20068;-92
2021/01/23 05:48:53;;;;;;;14.50;2.63;;;6.20;99.90;;;;;;5079468;28;20532;-93
2021/01/23 05:51:21;;;;;;;17.05;2.55;;;6.20;99.90;;;;;;5032101;28;20042;-92
2021/01/23 05:53:49;;;;;;;21.13;3.08;;;6.30;99.90;;;;;;5057582;28;20110;-93
2021/01/23 05:56:18;;;;;;;12.43;2.03;;;6.30;99.90;;;;;;5081006;28;20491;-92
2021/01/23 05:58:46;;;;;;;12.13;1.92;;;6.30;99.90;;;;;;5071197;28;20048;-93
2021/01/23 06:01:25;;;;;;;10.02;1.45;;;6.30;99.90;;;;;;5051869;28;20059;-92
2021/01/23 06:03:58;;;;;;;12.38;1.45;;;6.30;99.90;;;;;;5087865;28;20072;-93
2021/01/23 06:06:27;;;;;;;7.80;1.20;;;6.30;99.90;;;;;;5085669;28;20037;-93
2021/01/23 06:08:54;;;;;;;6.80;1.30;;;6.20;99.90;;;;;;5075525;28;20415;-93
2021/01/23 06:11:21;;;;;;;4.35;0.75;;;6.30;99.90;;;;;;5052596;28;20068;-93
2021/01/23 06:13:51;;;;;;;8.52;1.52;;;6.20;99.90;;;;;;5046516;28;20051;-92
2021/01/23 06:16:52;;;;;;;7.22;0.80;;;6.20;99.90;;;;;;5063955;28;20036;-93
2021/01/23 06:19:28;;;;;;;5.45;0.80;;;6.20;99.90;;;;;;5029298;28;20048;-93
2021/01/23 06:21:55;;;;;;;6.40;1.17;;;6.20;99.90;;;;;;5024516;28;20171;-92
2021/01/23 06:24:31;;;;;;;7.80;1.45;;;6.10;99.90;;;;;;5018565;28;20039;-93
2021/01/23 06:27:00;;;;;;;9.07;1.45;;;6.10;99.90;;;;;;5001142;28;20060;-93
2021/01/23 06:29:36;;;;;;;4.40;0.67;;;6.10;99.90;;;;;;5029324;28;20053;-92
2021/01/23 06:32:12;;;;;;;5.97;0.82;;;6.10;99.90;;;;;;5017141;28;20079;-93
2021/01/23 06:34:52;;;;;;;8.75;1.05;;;6.10;99.90;;;;;;4999388;28;20420;-93
2021/01/23 06:37:25;;;;;;;7.78;0.90;;;6.10;99.90;;;;;;5020516;28;20099;-93
2021/01/23 06:40:13;;;;;;;9.40;1.13;;;6.10;99.90;;;;;;5016160;28;20069;-93
2021/01/23 06:42:49;;;;;;;7.93;0.80;;;6.10;99.90;;;;;;5009025;28;20150;-94
2021/01/23 06:45:18;;;;;;;11.38;1.52;;;6.10;99.90;;;;;;4999763;28;20128;-93
2021/01/23 06:47:48;;;;;;;;;;;6.00;99.90;;;;;;5012351;28;20100;-94
2021/01/23 06:50:28;;;;;;;10.93;1.50;;;6.00;99.90;;;;;;5021788;28;19973;-94
2021/01/23 06:53:06;;;;;;;7.55;1.02;;;6.00;99.90;;;;;;5015917;28;20080;-94
2021/01/23 06:55:41;;;;;;;3.95;1.08;;;5.90;99.90;;;;;;5016236;28;20072;-94
2021/01/23 06:58:22;;;;;;;6.10;0.95;;;5.90;99.90;;;;;;5019795;28;20041;-93
2021/01/23 07:01:02;;;;;;;7.35;1.33;;;5.80;99.90;;;;;;5057739;28;20060;-93
2021/01/23 07:03:32;;;;;;;3.80;0.43;;;5.80;99.90;;;;;;5068570;28;20091;-93
2021/01/23 07:06:22;;;;;;;2.30;0.63;;;5.80;99.90;;;;;;5046780;28;20122;-93
2021/01/23 07:08:49;;;;;;;6.95;0.77;;;5.80;99.90;;;;;;5033742;28;20047;-93
2021/01/23 07:11:18;;;;;;;3.00;0.40;;;5.90;99.90;;;;;;5054971;28;20044;-93
2021/01/23 07:14:02;;;;;;;8.52;1.15;;;5.90;99.90;;;;;;5055781;28;20098;-92
2021/01/23 07:16:30;;;;;;;2.92;0.70;;;5.90;99.90;;;;;;5038319;28;20044;-92
2021/01/23 07:19:04;;;;;;;9.30;0.75;;;5.90;99.90;;;;;;5073261;28;20067;-93
2021/01/23 07:21:39;;;;;;;2.85;0.80;;;5.80;99.90;;;;;;5092739;28;20127;-93
2021/01/23 07:24:09;;;;;;;2.78;0.60;;;5.80;99.90;;;;;;5065087;28;20195;-91
2021/01/23 07:26:37;;;;;;;3.85;0.82;;;5.70;99.90;;;;;;5060443;28;20087;-91
2021/01/23 07:29:03;;;;;;;3.30;0.65;;;5.60;99.90;;;;;;5076606;28;20050;-91
2021/01/23 07:31:32;;;;;;;1.52;0.40;;;5.60;99.90;;;;;;5098310;28;20048;-92
2021/01/23 07:34:08;;;;;;;2.03;0.38;;;5.50;99.90;;;;;;5098236;28;20074;-91
2021/01/23 07:36:39;;;;;;;1.70;0.32;;;5.50;99.90;;;;;;5108688;28;20097;-91
2021/01/23 07:39:13;;;;;;;3.30;0.30;;;5.50;99.90;;;;;;5092450;28;20089;-92
2021/01/23 07:41:46;;;;;;;1.10;0.20;;;5.40;99.90;;;;;;5100554;28;20476;-92
2021/01/23 07:44:13;;;;;;;1.17;0.28;;;5.30;99.90;;;;;;5078938;28;20052;-91
2021/01/23 07:46:41;;;;;;;1.73;0.25;;;5.30;99.90;;;;;;5070003;28;20048;-92
2021/01/23 07:49:19;;;;;;;2.78;0.28;;;5.20;99.90;;;;;;5044482;28;20048;-91
2021/01/23 07:51:46;;;;;;;2.47;0.30;;;5.20;99.90;;;;;;5059229;28;20048;-90
2021/01/23 07:54:14;;;;;;;;;;;5.10;99.90;;;;;;5077075;28;20045;-92
2021/01/23 07:56:52;;;;;;;2.40;0.40;;;5.10;99.90;;;;;;5061968;28;19921;-92
2021/01/23 07:59:20;;;;;;;2.95;0.38;;;5.10;99.90;;;;;;5068907;28;20045;-91
2021/01/23 08:01:49;;;;;;;3.33;0.50;;;5.10;99.90;;;;;;5054426;28;20051;-92
2021/01/23 08:04:35;;;;;;;2.45;0.30;;;5.10;99.90;;;;;;5051752;28;20063;-92
2021/01/23 08:07:24;;;;;;;2.17;0.25;;;5.10;99.90;;;;;;5079722;28;20051;-92
2021/01/23 08:10:17;;;;;;;0.93;0.35;;;5.10;99.90;;;;;;5072151;28;20070;-92
2021/01/23 08:13:07;;;;;;;1.63;0.30;;;5.10;99.90;;;;;;5046169;28;20052;-92
2021/01/23 08:15:38;;;;;;;1.80;0.32;;;5.10;99.90;;;;;;5034753;28;20051;-92
2021/01/23 08:18:19;;;;;;;2.72;0.73;;;5.10;99.90;;;;;;5033073;28;20106;-91
2021/01/23 08:20:47;;;;;;;2.30;0.28;;;5.10;99.90;;;;;;5042752;28;20186;-91
2021/01/23 08:23:16;;;;;;;1.52;0.45;;;5.10;99.90;;;;;;5051839;28;20048;-93
2021/01/23 08:25:48;;;;;;;0.82;0.20;;;5.10;99.90;;;;;;5050607;28;20135;-92
2021/01/23 08:28:30;;;;;;;0.30;0.20;;;5.00;99.90;;;;;;5053523;28;20076;-90
2021/01/23 08:31:15;;;;;;;1.58;0.20;;;5.00;99.90;;;;;;5052212;28;20045;-92
2021/01/23 08:34:07;;;;;;;1.67;0.20;;;5.00;99.90;;;;;;5061010;28;20049;-92
2021/01/23 08:36:35;;;;;;;1.75;0.30;;;5.10;99.90;;;;;;5042243;28;20049;-91
2021/01/23 08:39:06;;;;;;;0.98;0.40;;;5.10;99.90;;;;;;5015392;28;20057;-92
2021/01/23 08:41:34;;;;;;;1.83;0.30;;;5.10;99.90;;;;;;5053789;28;20135;-92
2021/01/23 08:44:03;;;;;;;5.43;0.70;;;5.20;99.90;;;;;;5075495;28;20036;-91
2021/01/23 08:46:30;;;;;;;3.08;0.40;;;5.30;99.90;;;;;;5069537;28;20063;-92
2021/01/23 08:48:57;;;;;;;2.47;0.47;;;5.30;99.90;;;;;;5076867;28;20121;-92
2021/01/23 08:51:24;;;;;;;3.53;0.85;;;5.40;99.90;;;;;;5046653;28;20083;-92
2021/01/23 08:53:51;;;;;;;2.58;0.80;;;5.40;99.90;;;;;;5086145;28;20430;-91
2021/01/23 08:56:17;;;;;;;4.20;1.17;;;5.40;99.90;;;;;;5063663;28;20055;-92
2021/01/23 08:58:46;;;;;;;3.22;0.98;;;5.50;99.90;;;;;;5063989;28;20115;-92
2021/01/23 09:01:15;;;;;;;6.25;1.38;;;5.60;99.90;;;;;;5057022;28;20067;-92
2021/01/23 09:03:42;;;;;;;6.28;1.00;;;5.60;99.90;;;;;;5036870;28;20051;-91
2021/01/23 09:06:11;;;;;;;3.70;1.20;;;5.60;99.90;;;;;;5054995;28;20044;-92
2021/01/23 09:08:38;;;;;;;4.10;0.93;;;5.70;99.90;;;;;;5057268;28;20048;-92
2021/01/23 09:11:05;;;;;;;3.70;1.00;;;5.60;99.90;;;;;;5057107;28;20044;-93
2021/01/23 09:13:32;;;;;;;8.35;1.00;;;5.60;99.90;;;;;;5050104;28;20059;-92
2021/01/23 09:15:59;;;;;;;4.97;0.60;;;5.70;99.90;;;;;;5085752;28;20043;-92
2021/01/23 09:18:25;;;;;;;2.90;0.60;;;5.60;99.90;;;;;;5055479;28;20079;-93
2021/01/23 09:20:58;;;;;;;4.95;0.85;;;5.70;99.90;;;;;;5058727;28;20062;-92
2021/01/23 09:23:40;;;;;;;3.45;0.50;;;5.80;99.90;;;;;;5074697;28;20552;-93
2021/01/23 09:26:11;;;;;;;4.63;0.75;;;5.80;99.90;;;;;;5062905;28;20052;-90
2021/01/23 09:28:45;;;;;;;4.95;0.68;;;5.90;99.90;;;;;;5038195;28;20444;-92
2021/01/23 09:31:15;;;;;;;2.40;0.50;;;6.10;99.90;;;;;;5043392;28;20055;-91
2021/01/23 09:33:42;;;;;;;4.65;0.60;;;6.10;99.90;;;;;;5068344;28;20047;-92
2021/01/23 09:36:12;;;;;;;2.73;0.40;;;6.30;99.90;;;;;;5039052;28;20079;-92
2021/01/23 09:38:42;;;;;;;3.45;0.70;;;6.30;99.90;;;;;;4999401;28;20045;-92
2021/01/23 09:41:15;;;;;;;2.47;0.50;;;6.50;99.90;;;;;;5057109;28;20056;-92
2021/01/23 09:43:43;;;;;;;4.00;0.70;;;6.60;99.90;;;;;;5052031;28;20056;-91
2021/01/23 09:46:10;;;;;;;4.60;0.50;;;6.60;99.90;;;;;;5040752;28;20056;-92
2021/01/23 09:48:38;;;;;;;2.83;0.57;;;6.60;99.90;;;;;;5050146;28;20071;-92
2021/01/23 09:51:05;;;;;;;6.43;0.73;;;6.70;99.90;;;;;;5035340;28;20054;-92
2021/01/23 09:53:32;;;;;;;5.53;0.50;;;6.70;99.90;;;;;;5069937;28;20480;-92
2021/01/23 09:55:58;;;;;;;3.55;0.98;;;6.70;99.90;;;;;;5053762;28;20054;-92
2021/01/23 09:58:25;;;;;;;3.33;0.60;;;6.80;99.90;;;;;;5057680;28;20050;-92
2021/01/23 10:00:55;;;;;;;3.53;0.60;;;6.80;99.90;;;;;;5062353;28;20139;-92
2021/01/23 10:03:23;;;;;;;3.40;0.60;;;6.80;99.90;;;;;;5061100;28;20056;-92
2021/01/23 10:05:50;;;;;;;4.40;0.55;;;6.90;99.90;;;;;;5056443;28;20040;-92
2021/01/23 10:08:17;;;;;;;3.83;0.75;;;6.90;99.90;;;;;;5072344;28;20048;-89
2021/01/23 10:10:43;;;;;;;7.20;0.80;;;6.90;99.90;;;;;;5081303;28;20121;-89
2021/01/23 10:13:10;;;;;;;6.20;1.00;;;6.90;99.90;;;;;;5081186;28;20059;-88
2021/01/23 10:15:36;;;;;;;4.60;0.90;;;6.90;99.90;;;;;;5079835;28;20050;-89
2021/01/23 10:18:03;;;;;;;3.83;0.80;;;6.90;99.90;;;;;;5073012;28;20052;-88
2021/01/23 10:20:30;;;;;;;4.75;0.85;;;7.00;99.90;;;;;;5052333;28;20131;-89
2021/01/23 10:22:57;;;;;;;9.20;1.48;;;7.00;99.90;;;;;;5052868;28;20052;-89
2021/01/23 10:25:23;;;;;;;5.57;0.90;;;7.00;99.90;;;;;;5053312;28;20049;-88
2021/01/23 10:27:50;;;;;;;5.72;0.80;;;7.10;99.90;;;;;;5065035;28;20037;-89
2021/01/23 10:30:19;;;;;;;5.43;1.17;;;7.10;99.90;;;;;;5054643;28;20384;-88
2021/01/23 10:32:45;;;;;;;10.00;1.15;;;7.20;99.90;;;;;;5050199;28;20056;-89
2021/01/23 10:35:13;;;;;;;5.65;1.10;;;7.20;99.90;;;;;;5062753;28;20040;-87
2021/01/23 10:37:40;;;;;;;7.47;1.25;;;7.30;99.90;;;;;;5061318;28;20048;-90
2021/01/23 10:40:07;;;;;;;6.22;0.70;;;7.30;99.90;;;;;;5060566;28;20047;-90
2021/01/23 10:42:34;;;;;;;8.55;1.15;;;7.40;99.90;;;;;;5064509;28;20055;-91
2021/01/23 10:45:04;;;;;;;6.85;1.35;;;7.40;99.90;;;;;;5054746;28;20060;-90
2021/01/23 10:47:31;;;;;;;9.82;1.52;;;7.50;99.90;;;;;;5071488;28;20047;-91
2021/01/23 10:49:58;;;;;;;6.25;1.40;;;7.50;99.90;;;;;;5076394;28;20036;-91
2021/01/23 10:52:26;;;;;;;9.73;1.30;;;7.50;99.90;;;;;;5069748;28;20048;-90
2021/01/23 10:54:53;;;;;;;;;;;7.50;99.90;;;;;;5051333;28;20112;-91
2021/01/23 10:57:20;;;;;;;7.20;0.90;;;7.60;99.90;;;;;;5078732;28;19928;-89
2021/01/23 10:59:46;;;;;;;9.10;1.35;;;7.60;99.90;;;;;;5042849;28;20519;-90
2021/01/23 11:02:13;;;;;;;4.78;0.90;;;7.60;99.90;;;;;;5057498;28;20045;-91
2021/01/23 11:04:39;;;;;;;2.80;1.10;;;7.70;99.90;;;;;;5049103;28;20053;-91
2021/01/23 11:07:06;;;;;;;4.25;1.10;;;7.70;99.90;;;;;;5041498;28;20195;-90
2021/01/23 11:09:33;;;;;;;6.15;1.15;;;7.70;99.90;;;;;;5055396;28;20048;-91
2021/01/23 11:11:59;;;;;;;5.05;1.40;;;7.70;99.90;;;;;;5054943;28;20135;-91
2021/01/23 11:14:29;;;;;;;3.90;0.90;;;7.70;99.90;;;;;;5047984;28;20059;-91
2021/01/23 11:16:55;;;;;;;3.22;1.23;;;7.80;99.90;;;;;;5061067;28;20072;-91
2021/01/23 11:19:24;;;;;;;7.22;1.02;;;7.80;99.90;;;;;;5070091;28;20078;-91
2021/01/23 11:21:51;;;;;;;4.90;0.98;;;7.80;99.90;;;;;;5052443;28;20403;-91
2021/01/23 11:24:21;;;;;;;6.00;0.82;;;7.80;99.90;;;;;;5048859;28;20520;-92
2021/01/23 11:26:48;;;;;;;6.63;1.90;;;7.90;99.90;;;;;;5054148;28;20078;-91
2021/01/23 11:29:15;;;;;;;2.88;0.68;;;7.90;99.90;;;;;;5064074;28;20048;-91
2021/01/23 11:31:42;;;;;;;2.50;0.60;;;8.00;99.90;;;;;;5065642;28;20039;-91
2021/01/23 11:34:08;;;;;;;8.15;1.10;;;8.00;99.90;;;;;;5051339;28;20051;-91
2021/01/23 11:36:35;;;;;;;5.32;0.90;;;8.00;99.90;;;;;;5051783;28;20234;-88
2021/01/23 11:39:02;;;;;;;9.75;1.05;;;8.00;99.90;;;;;;5058343;28;20052;-88
2021/01/23 11:41:29;;;;;;;7.00;1.63;;;8.00;99.90;;;;;;5058757;28;20047;-88
2021/01/23 11:43:55;;;;;;;5.32;0.88;;;8.00;99.90;;;;;;5060236;28;20044;-90
2021/01/23 11:46:22;;;;;;;5.22;1.02;;;8.00;99.90;;;;;;5071140;28;20214;-90
2021/01/23 11:48:48;;;;;;;6.18;1.02;;;8.00;99.90;;;;;;5072460;28;20054;-89
2021/01/23 11:51:18;;;;;;;4.53;0.80;;;8.10;99.90;;;;;;5058137;28;20040;-90
2021/01/23 11:53:44;;;;;;;;;;;8.10;99.90;;;;;;5054689;28;20079;-90
2021/01/23 11:56:11;;;;;;;5.93;1.60;;;8.00;99.90;;;;;;5047244;28;20003;-90
2021/01/23 11:58:37;;;;;;;8.57;1.42;;;8.00;99.90;;;;;;5054364;28;20044;-88
2021/01/23 12:01:03;;;;;;;6.00;1.27;;;8.10;99.90;;;;;;5050309;28;20463;-91
2021/01/23 12:03:31;;;;;;;10.00;2.17;;;8.10;99.90;;;;;;5062972;28;20132;-90
2021/01/23 12:05:58;;;;;;;12.48;2.03;;;8.10;99.90;;;;;;5044345;28;20049;-91
2021/01/23 12:08:25;;;;;;;9.25;1.42;;;8.20;99.90;;;;;;5062436;28;20111;-90
2021/01/23 12:10:51;;;;;;;5.25;1.10;;;8.20;99.90;;;;;;5051544;28;20391;-91
2021/01/23 12:13:20;;;;;;;5.32;0.85;;;8.10;99.90;;;;;;5057819;28;20365;-90
2021/01/23 12:15:47;;;;;;;;;;;8.20;99.90;;;;;;5063066;28;20661;-91
2021/01/23 12:18:16;;;;;;;7.38;1.45;;;8.20;99.90;;;;;;5054306;28;19970;-92
2021/01/23 12:20:48;;;;;;;7.03;1.30;;;8.30;99.90;;;;;;5054327;28;20542;-90
2021/01/23 12:23:17;;;;;;;7.18;1.48;;;8.40;99.90;;;;;;5054713;28;20084;-92
2021/01/23 12:25:46;;;;;;;5.07;1.10;;;8.50;99.90;;;;;;5047966;28;20051;-92
2021/01/23 12:28:15;;;;;;;;;;;8.60;99.90;;;;;;5084610;28;20048;-88
2021/01/23 12:31:11;;;;;;;5.75;1.02;;;8.60;99.90;;;;;;5064827;28;20378;-92
2021/01/23 12:33:39;;;;;;;10.15;1.13;;;8.60;99.90;;;;;;5056003;28;20044;-92
2021/01/23 12:36:06;;;;;;;5.15;1.30;;;8.40;99.90;;;;;;5033210;28;20056;-92
2021/01/23 12:38:37;;;;;;;5.28;0.80;;;8.40;99.90;;;;;;5046201;28;20045;-91
2021/01/23 12:41:04;;;;;;;;;;;8.20;99.90;;;;;;5042538;28;20047;-92
2021/01/23 12:43:31;;;;;;;8.45;1.60;;;8.10;99.90;;;;;;5056044;28;19921;-91
2021/01/23 12:45:58;;;;;;;5.32;1.17;;;8.00;99.90;;;;;;5043501;28;20055;-91
2021/01/23 12:48:27;;;;;;;5.15;1.45;;;8.00;99.90;;;;;;5046602;28;20402;-92
2021/01/23 12:50:53;;;;;;;6.05;1.42;;;8.00;99.90;;;;;;5048667;28;20119;-91
2021/01/23 12:53:22;;;;;;;11.45;1.67;;;8.00;99.90;;;;;;5037431;28;20055;-92
2021/01/23 12:55:50;;;;;;;;;;;8.00;99.90;;;;;;5038054;28;20044;-92
2021/01/23 12:58:19;;;;;;;6.90;1.42;;;7.90;99.90;;;;;;5074652;28;19935;-92
2021/01/23 13:00:45;;;;;;;;;;;8.00;99.90;;;;;;5075382;28;20079;-89
2021/01/23 13:03:15;;;;;;;6.90;1.15;;;8.00;99.90;;;;;;5082604;28;19920;-83
2021/01/23 13:05:41;;;;;;;9.63;2.42;;;7.90;99.90;;;;;;5052786;28;20048;-82
2021/01/23 13:08:08;;;;;;;10.63;2.20;;;8.00;99.90;;;;;;5086217;28;20101;-87
2021/01/23 13:10:34;;;;;;;7.18;1.48;;;8.10;99.90;;;;;;5050138;28;20083;-87
2021/01/23 13:13:01;;;;;;;9.30;1.48;;;8.10;99.90;;;;;;5067498;28;20051;-86